15°C Temp
13°C Dewpoint
88% Humidity
Temperature
3 KM/H
2 MPH
2 KTS
300°
West North
West

Wind Speed
Clear
Conditions
Pressure 1019.92 (hPa) - 30.12 (in)
Visibility 6.2 (mi) - 10.0 (km)

Current Conditions
LIRI
Location 25(km)
Metar :LIRI 051550Z 30002KT CAVOK 15/13 Q1020
Mon 5th December 16:50 pm

Airport
  Metar Aviation API Data Provided by https://www.checkwx.com/ PHP scripts by weather34.com ©2022